createdAt,value
2017-04-20T00:00:59.568Z,2.97
2017-04-20T00:02:00.179Z,2.98
2017-04-20T00:03:00.766Z,2.92
2017-04-20T00:04:01.356Z,2.97
2017-04-20T00:05:01.963Z,2.93
2017-04-20T00:06:02.554Z,2.92
2017-04-20T00:07:03.145Z,2.80
2017-04-20T00:08:03.751Z,2.79
2017-04-20T00:09:04.357Z,2.72
2017-04-20T00:10:04.947Z,2.71
2017-04-20T00:11:05.539Z,2.74
2017-04-20T00:12:06.129Z,2.75
2017-04-20T00:13:06.742Z,2.77
2017-04-20T00:14:07.354Z,2.61
2017-04-20T00:15:07.941Z,2.71
2017-04-20T00:16:08.537Z,2.60
2017-04-20T00:17:09.124Z,2.64
2017-04-20T00:18:09.720Z,2.62
2017-04-20T00:19:10.314Z,2.67
2017-04-20T00:20:10.902Z,2.56
2017-04-20T00:21:11.494Z,2.60
2017-04-20T00:22:12.083Z,2.61
2017-04-20T00:23:12.680Z,2.61
2017-04-20T00:24:13.273Z,2.56
2017-04-20T00:25:13.880Z,2.47
2017-04-20T00:26:14.492Z,2.50
2017-04-20T00:27:15.097Z,2.53
2017-04-20T00:28:15.693Z,2.51
2017-04-20T00:29:16.284Z,2.56
2017-04-20T00:30:16.873Z,2.43
2017-04-20T00:31:17.463Z,2.57
2017-04-20T00:32:18.054Z,2.57
2017-04-20T00:33:18.660Z,2.56
2017-04-20T00:34:19.265Z,2.56
2017-04-20T00:35:19.854Z,2.57
2017-04-20T00:36:20.445Z,2.56
2017-04-20T00:37:21.039Z,2.50
2017-04-20T00:38:21.625Z,2.53
2017-04-20T00:39:22.215Z,2.49
2017-04-20T00:40:22.806Z,2.57
2017-04-20T00:41:23.402Z,2.49
2017-04-20T00:42:23.989Z,2.62
2017-04-20T00:43:24.584Z,2.56
2017-04-20T00:44:25.174Z,2.51
2017-04-20T00:45:25.763Z,2.57
2017-04-20T00:46:26.369Z,2.50
2017-04-20T00:47:26.976Z,2.62
2017-04-20T00:48:27.581Z,2.51
2017-04-20T00:49:28.176Z,2.56
2017-04-20T00:50:28.763Z,2.60
2017-04-20T00:51:29.355Z,2.60
2017-04-20T00:52:29.965Z,2.51
2017-04-20T00:53:30.553Z,2.62
2017-04-20T00:54:31.164Z,2.57
2017-04-20T00:55:31.752Z,2.56
2017-04-20T00:56:32.342Z,2.64
2017-04-20T00:57:32.948Z,2.62
2017-04-20T00:58:33.537Z,2.54
2017-04-20T00:59:34.127Z,2.61
2017-04-20T01:00:34.718Z,2.77
2017-04-20T01:01:35.324Z,2.82
2017-04-20T01:02:35.913Z,2.80
2017-04-20T01:03:36.503Z,2.79
2017-04-20T01:04:37.098Z,2.80
2017-04-20T01:05:37.692Z,2.83
2017-04-20T01:06:38.284Z,2.92
2017-04-20T01:07:38.873Z,2.92
2017-04-20T01:08:39.469Z,2.97
2017-04-20T01:09:40.058Z,3.01
2017-04-20T01:10:40.673Z,3.00
2017-04-20T01:11:41.278Z,2.95
2017-04-20T01:12:41.866Z,3.03
2017-04-20T01:13:42.462Z,3.01
2017-04-20T01:14:43.049Z,2.95
2017-04-20T01:15:43.654Z,3.04
2017-04-20T01:16:44.247Z,2.95
2017-04-20T01:17:44.842Z,2.97
2017-04-20T01:18:45.428Z,2.93
2017-04-20T01:19:46.021Z,2.95
2017-04-20T01:20:46.632Z,2.89
2017-04-20T01:21:47.242Z,3.00
2017-04-20T01:22:47.828Z,2.92
2017-04-20T01:23:48.417Z,2.87
2017-04-20T01:24:49.009Z,2.90
2017-04-20T01:25:49.605Z,3.00
2017-04-20T01:26:50.211Z,3.00
2017-04-20T01:27:50.805Z,2.98
2017-04-20T01:28:51.394Z,3.00
2017-04-20T01:29:51.989Z,3.00
2017-04-20T01:30:52.577Z,3.03
2017-04-20T01:31:53.173Z,3.03
2017-04-20T01:32:53.779Z,2.97
2017-04-20T01:33:54.369Z,3.00
2017-04-20T01:34:54.979Z,3.01
2017-04-20T01:35:55.550Z,3.00
2017-04-20T01:36:56.143Z,3.00
2017-04-20T01:37:56.734Z,2.93
2017-04-20T01:38:57.325Z,2.92
2017-04-20T01:39:57.922Z,2.77
2017-04-20T01:40:58.509Z,2.79
2017-04-20T01:41:59.100Z,2.82
2017-04-20T01:42:59.690Z,2.77
2017-04-20T01:44:00.279Z,2.80
2017-04-20T01:45:00.877Z,2.72
2017-04-20T01:46:01.469Z,2.74
2017-04-20T01:47:02.057Z,2.62
2017-04-20T01:48:02.648Z,2.82
2017-04-20T01:49:03.253Z,2.80
2017-04-20T01:50:03.843Z,2.67
2017-04-20T01:51:04.454Z,2.69
2017-04-20T01:52:05.039Z,2.67
2017-04-20T01:53:05.629Z,2.68
2017-04-20T01:54:06.225Z,2.64
2017-04-20T01:55:06.813Z,2.60
2017-04-20T01:56:07.418Z,2.54
2017-04-20T01:57:08.024Z,2.56
2017-04-20T01:58:08.615Z,2.61
2017-04-20T01:59:09.206Z,2.57
2017-04-20T02:00:09.797Z,2.53
2017-04-20T02:01:10.385Z,2.51
2017-04-20T02:02:10.976Z,2.61
2017-04-20T02:03:11.566Z,2.62
2017-04-20T02:04:12.156Z,2.50
2017-04-20T02:05:12.751Z,2.57
2017-04-20T02:06:13.341Z,2.61
2017-04-20T02:07:13.930Z,2.61
2017-04-20T02:08:14.519Z,2.42
2017-04-20T02:09:15.110Z,2.49
2017-04-20T02:10:15.700Z,2.39
2017-04-20T02:11:16.291Z,2.33
2017-04-20T02:12:16.882Z,2.33
2017-04-20T02:13:17.477Z,2.32
2017-04-20T02:14:18.110Z,2.35
2017-04-20T02:15:18.697Z,2.35
2017-04-20T02:16:19.288Z,2.28
2017-04-20T02:17:19.878Z,2.24
2017-04-20T02:18:20.474Z,2.18
2017-04-20T02:19:21.061Z,2.22
2017-04-20T02:20:21.655Z,2.13
2017-04-20T02:21:22.243Z,2.14
2017-04-20T02:22:22.847Z,2.00
2017-04-20T02:23:23.437Z,2.06
2017-04-20T02:24:24.028Z,2.07
2017-04-20T02:25:24.616Z,1.95
2017-04-20T02:26:25.207Z,2.00
2017-04-20T02:27:25.796Z,1.92
2017-04-20T02:28:26.386Z,1.91
2017-04-20T02:29:26.977Z,1.91
2017-04-20T02:30:27.566Z,1.89
2017-04-20T02:31:28.156Z,1.89
2017-04-20T02:32:28.748Z,1.85
2017-04-20T02:33:29.336Z,1.85
2017-04-20T02:34:29.926Z,1.84
2017-04-20T02:35:30.518Z,1.91
2017-04-20T02:36:31.107Z,1.74
2017-04-20T02:37:31.698Z,1.76
2017-04-20T02:38:32.310Z,1.80
2017-04-20T02:39:32.896Z,1.77
2017-04-20T02:40:33.487Z,1.76
2017-04-20T02:41:34.081Z,1.68
2017-04-20T02:42:34.674Z,1.71
2017-04-20T02:43:35.268Z,1.73
2017-04-20T02:44:35.855Z,1.77
2017-04-20T02:45:36.444Z,1.81
2017-04-20T02:46:37.033Z,1.81
2017-04-20T02:47:37.623Z,1.80
2017-04-20T02:48:38.212Z,1.71
2017-04-20T02:49:38.801Z,1.73
2017-04-20T02:50:39.392Z,1.71
2017-04-20T02:51:39.981Z,1.71
2017-04-20T02:52:40.570Z,1.70
2017-04-20T02:53:41.166Z,1.68
2017-04-20T02:54:41.752Z,1.71
2017-04-20T02:55:42.360Z,1.68
2017-04-20T02:56:42.946Z,1.67
2017-04-20T02:57:43.536Z,1.70
2017-04-20T02:58:44.125Z,1.71
2017-04-20T02:59:44.718Z,1.68
2017-04-20T03:00:45.319Z,1.74
2017-04-20T03:01:45.910Z,1.62
2017-04-20T03:02:46.498Z,1.62
2017-04-20T03:03:47.094Z,1.76
2017-04-20T03:04:47.681Z,1.67
2017-04-20T03:05:48.270Z,1.73
2017-04-20T03:06:48.939Z,1.68
2017-04-20T03:07:49.527Z,1.68
2017-04-20T03:08:50.132Z,1.74
2017-04-20T03:09:50.721Z,1.73
2017-04-20T03:10:51.311Z,1.67
2017-04-20T03:11:51.901Z,1.70
2017-04-20T03:12:52.491Z,1.68
2017-04-20T03:13:53.096Z,1.67
2017-04-20T03:14:53.691Z,1.60
2017-04-20T03:15:54.277Z,1.66
2017-04-20T03:16:54.866Z,1.77
2017-04-20T03:17:55.472Z,1.56
2017-04-20T03:18:56.078Z,1.56
2017-04-20T03:19:56.682Z,1.50
2017-04-20T03:20:57.271Z,1.56
2017-04-20T03:21:57.860Z,1.56
2017-04-20T03:22:58.451Z,1.58
2017-04-20T03:23:59.040Z,1.52
2017-04-20T03:24:59.628Z,1.62
2017-04-20T03:26:00.220Z,1.52
2017-04-20T03:27:00.809Z,1.52
2017-04-20T03:28:01.413Z,1.62
2017-04-20T03:29:02.009Z,1.53
2017-04-20T03:30:02.619Z,1.52
2017-04-20T03:31:03.205Z,1.49
2017-04-20T03:32:03.796Z,1.50
2017-04-20T03:33:04.390Z,1.53
2017-04-20T03:34:04.984Z,1.45
2017-04-20T03:35:05.570Z,1.49
2017-04-20T03:36:06.159Z,1.48
2017-04-20T03:37:06.755Z,1.44
2017-04-20T03:38:07.347Z,1.45
2017-04-20T03:39:07.934Z,1.44
2017-04-20T03:40:08.523Z,1.44
2017-04-20T03:41:09.128Z,1.49
2017-04-20T03:42:09.717Z,1.48
2017-04-20T03:43:10.307Z,1.49
2017-04-20T03:44:10.895Z,1.41
2017-04-20T03:45:11.486Z,1.42
2017-04-20T03:46:12.081Z,1.34
2017-04-20T03:47:12.667Z,1.44
2017-04-20T03:48:13.262Z,1.34
2017-04-20T03:49:13.874Z,1.48
2017-04-20T03:50:14.468Z,1.37
2017-04-20T03:51:15.057Z,1.34
2017-04-20T03:52:15.646Z,1.38
2017-04-20T03:53:16.237Z,1.31
2017-04-20T03:54:16.824Z,1.28
2017-04-20T03:55:17.416Z,1.30
2017-04-20T03:56:18.021Z,1.31
2017-04-20T03:57:18.654Z,1.32
2017-04-20T03:58:19.317Z,1.31
2017-04-20T03:59:19.979Z,1.34
2017-04-20T04:00:20.568Z,1.31
2017-04-20T04:01:21.156Z,1.34
2017-04-20T04:02:21.748Z,1.28
2017-04-20T04:03:22.335Z,1.34
2017-04-20T04:04:22.940Z,1.37
2017-04-20T04:05:23.528Z,1.32
2017-04-20T04:06:24.134Z,1.28
2017-04-20T04:07:24.722Z,1.34
2017-04-20T04:08:25.311Z,1.34
2017-04-20T04:09:25.916Z,1.31
2017-04-20T04:10:26.505Z,1.23
2017-04-20T04:11:27.095Z,1.34
2017-04-20T04:12:27.684Z,1.28
2017-04-20T04:13:28.282Z,1.30
2017-04-20T04:14:28.874Z,1.30
2017-04-20T04:15:29.462Z,1.34
2017-04-20T04:16:30.052Z,1.31
2017-04-20T04:17:30.644Z,1.31
2017-04-20T04:18:31.232Z,1.34
2017-04-20T04:19:31.821Z,1.35
2017-04-20T04:20:32.413Z,1.30
2017-04-20T04:21:33.008Z,1.28
2017-04-20T04:22:33.597Z,1.40
2017-04-20T04:23:34.201Z,1.23
2017-04-20T04:24:34.792Z,1.32
2017-04-20T04:25:35.384Z,1.23
2017-04-20T04:26:35.975Z,1.28
2017-04-20T04:27:36.564Z,1.24
2017-04-20T04:28:37.157Z,1.31
2017-04-20T04:29:37.748Z,1.28
2017-04-20T04:30:38.340Z,1.23
2017-04-20T04:31:38.947Z,1.20
2017-04-20T04:32:39.543Z,1.24
2017-04-20T04:33:40.153Z,1.20
2017-04-20T04:34:40.728Z,1.23
2017-04-20T04:35:41.320Z,1.23
2017-04-20T04:36:41.913Z,1.35
2017-04-20T04:37:42.511Z,1.37
2017-04-20T04:38:43.105Z,1.40
2017-04-20T04:39:43.695Z,1.41
2017-04-20T04:40:44.293Z,1.44
2017-04-20T04:41:44.882Z,1.49
2017-04-20T04:42:45.476Z,1.45
2017-04-20T04:43:46.135Z,1.45
2017-04-20T04:44:46.734Z,1.49
2017-04-20T04:45:47.331Z,1.45
2017-04-20T04:46:47.919Z,1.48
2017-04-20T04:47:48.512Z,1.50
2017-04-20T04:48:49.104Z,1.58
2017-04-20T04:49:49.717Z,1.50
2017-04-20T04:50:50.308Z,1.56
2017-04-20T04:51:50.905Z,1.63
2017-04-20T04:52:51.498Z,1.66
2017-04-20T04:53:52.106Z,1.74
2017-04-20T04:54:52.698Z,1.73
2017-04-20T04:55:53.296Z,1.70
2017-04-20T04:56:53.892Z,1.68
2017-04-20T04:57:54.481Z,1.70
2017-04-20T04:58:55.080Z,1.73
2017-04-20T04:59:55.669Z,1.74
2017-04-20T05:00:56.268Z,1.80
2017-04-20T05:01:56.860Z,1.74
2017-04-20T05:02:57.469Z,1.81
2017-04-20T05:03:58.065Z,1.94
2017-04-20T05:04:58.668Z,2.25
2017-04-20T05:05:59.259Z,2.36
2017-04-20T05:06:59.855Z,2.57
2017-04-20T05:08:00.452Z,2.98
2017-04-20T05:09:01.046Z,3.16
2017-04-20T05:10:01.644Z,3.37
2017-04-20T05:11:02.239Z,3.56
2017-04-20T05:12:02.837Z,3.78
2017-04-20T05:13:03.431Z,3.99
2017-04-20T05:14:04.093Z,4.26
2017-04-20T05:15:04.722Z,4.32
2017-04-20T05:16:05.341Z,4.44
2017-04-20T05:17:06.016Z,4.53
2017-04-20T05:18:06.612Z,4.71
2017-04-20T05:19:07.275Z,4.94
2017-04-20T05:20:07.873Z,5.02
2017-04-20T05:21:08.489Z,5.15
2017-04-20T05:22:09.087Z,5.26
2017-04-20T05:23:09.703Z,5.33
2017-04-20T05:24:10.369Z,5.47
2017-04-20T05:25:11.000Z,5.51
2017-04-20T05:26:11.616Z,5.57
2017-04-20T05:27:12.270Z,5.73
2017-04-20T05:28:12.934Z,5.80
2017-04-20T05:29:13.587Z,5.89
2017-04-20T05:30:14.217Z,6.05
2017-04-20T05:31:14.846Z,6.19
2017-04-20T05:32:15.473Z,6.20
2017-04-20T05:33:16.102Z,6.44
2017-04-20T05:34:16.702Z,6.52
2017-04-20T05:35:17.378Z,6.72
2017-04-20T05:36:18.059Z,6.77
2017-04-20T05:37:18.667Z,6.88
2017-04-20T05:38:19.341Z,6.95
2017-04-20T05:39:20.009Z,7.03
2017-04-20T05:40:20.681Z,7.10
2017-04-20T05:41:21.304Z,7.25
2017-04-20T05:42:21.987Z,7.54
2017-04-20T05:43:22.654Z,7.67
2017-04-20T05:44:23.256Z,7.77
2017-04-20T05:45:23.942Z,7.93
2017-04-20T05:46:24.568Z,8.09
2017-04-20T05:47:25.176Z,8.19
2017-04-20T05:48:25.807Z,8.36
2017-04-20T05:49:26.430Z,8.60
2017-04-20T05:50:27.033Z,8.67
2017-04-20T05:51:27.694Z,8.73
2017-04-20T05:52:28.324Z,8.69
2017-04-20T05:53:29.024Z,8.95
2017-04-20T05:54:29.661Z,9.13
2017-04-20T05:55:30.327Z,9.37
2017-04-20T05:56:30.977Z,9.74
2017-04-20T05:57:31.635Z,10.05
2017-04-20T05:58:32.311Z,10.25
2017-04-20T05:59:32.926Z,10.44
2017-04-20T06:00:33.529Z,10.59
2017-04-20T06:01:34.142Z,10.86
2017-04-20T06:02:34.747Z,11.08
2017-04-20T06:03:35.414Z,11.37
2017-04-20T06:04:36.042Z,11.41
2017-04-20T06:05:36.739Z,11.32
2017-04-20T06:06:37.414Z,11.33
2017-04-20T06:07:38.094Z,11.32
2017-04-20T06:08:38.787Z,11.51
2017-04-20T06:09:39.399Z,11.75
2017-04-20T06:10:40.004Z,11.88
2017-04-20T06:11:40.648Z,12.06
2017-04-20T06:12:41.357Z,12.17
2017-04-20T06:13:41.968Z,12.25
2017-04-20T06:14:42.579Z,12.17
2017-04-20T06:15:43.204Z,12.07
2017-04-20T06:16:43.829Z,11.81
2017-04-20T06:17:44.439Z,11.66
2017-04-20T06:18:45.048Z,11.59
2017-04-20T06:19:45.667Z,11.52
2017-04-20T06:20:46.274Z,11.50
2017-04-20T06:21:46.886Z,11.47
2017-04-20T06:22:47.495Z,11.62
2017-04-20T06:23:48.105Z,11.78
2017-04-20T06:24:48.716Z,12.03
2017-04-20T06:25:49.338Z,12.12
2017-04-20T06:26:49.949Z,12.03
2017-04-20T06:27:50.577Z,11.94
2017-04-20T06:28:51.184Z,11.80
2017-04-20T06:29:51.811Z,11.72
2017-04-20T06:30:52.427Z,11.97
2017-04-20T06:31:53.044Z,12.00
2017-04-20T06:32:53.670Z,12.22
2017-04-20T06:33:54.287Z,12.27
2017-04-20T06:34:54.913Z,12.27
2017-04-20T06:35:55.523Z,12.31
2017-04-20T06:36:56.133Z,12.45
2017-04-20T06:37:56.765Z,12.29
2017-04-20T06:38:57.379Z,12.24
2017-04-20T06:39:57.991Z,12.27
2017-04-20T06:40:58.619Z,12.20
2017-04-20T06:41:59.230Z,12.03
2017-04-20T06:42:59.841Z,12.02
2017-04-20T06:44:00.453Z,12.15
2017-04-20T06:45:01.063Z,12.40
2017-04-20T06:46:01.675Z,12.72
2017-04-20T06:47:02.295Z,13.03
2017-04-20T06:48:02.912Z,13.19
2017-04-20T06:49:03.522Z,13.15
2017-04-20T06:50:04.139Z,13.01
2017-04-20T06:51:04.766Z,13.05
2017-04-20T06:52:05.378Z,13.13
2017-04-20T06:53:05.995Z,13.18
2017-04-20T06:54:06.611Z,13.16
2017-04-20T06:55:07.219Z,13.19
2017-04-20T06:56:07.839Z,13.44
2017-04-20T06:57:08.447Z,13.50
2017-04-20T06:58:09.061Z,13.44
2017-04-20T06:59:09.675Z,13.20
2017-04-20T07:00:10.287Z,13.08
2017-04-20T07:01:10.901Z,12.95
2017-04-20T07:02:11.513Z,12.70
2017-04-20T07:03:12.130Z,12.57
2017-04-20T07:04:12.740Z,12.40
2017-04-20T07:05:13.360Z,12.46
2017-04-20T07:06:13.989Z,12.61
2017-04-20T07:07:14.602Z,12.72
2017-04-20T07:08:15.216Z,12.70
2017-04-20T07:09:15.844Z,12.78
2017-04-20T07:10:16.458Z,13.08
2017-04-20T07:11:17.073Z,13.09
2017-04-20T07:12:17.692Z,13.42
2017-04-20T07:13:18.309Z,13.74
2017-04-20T07:14:18.919Z,14.12
2017-04-20T07:15:19.538Z,14.25
2017-04-20T07:16:20.168Z,14.41
2017-04-20T07:17:20.780Z,14.43
2017-04-20T07:18:21.408Z,14.50
2017-04-20T07:19:22.022Z,14.50
2017-04-20T07:20:22.636Z,14.26
2017-04-20T07:21:23.256Z,13.99
2017-04-20T07:22:23.874Z,13.65
2017-04-20T07:23:24.486Z,13.30
2017-04-20T07:24:25.102Z,13.11
2017-04-20T07:25:25.719Z,12.79
2017-04-20T07:26:26.332Z,12.60
2017-04-20T07:27:26.946Z,12.54
2017-04-20T07:28:27.576Z,12.45
2017-04-20T07:29:28.195Z,12.45
2017-04-20T07:30:28.807Z,12.46
2017-04-20T07:31:29.422Z,12.65
2017-04-20T07:32:30.035Z,12.70
2017-04-20T07:33:30.652Z,12.60
2017-04-20T07:34:31.286Z,12.53
2017-04-20T07:35:31.898Z,12.45
2017-04-20T07:36:32.528Z,12.55
2017-04-20T07:37:33.142Z,12.98
2017-04-20T07:38:33.758Z,13.28
2017-04-20T07:39:34.373Z,13.56
2017-04-20T07:40:34.987Z,13.83
2017-04-20T07:41:35.601Z,13.89
2017-04-20T07:42:36.216Z,14.10
2017-04-20T07:43:37.069Z,14.04
2017-04-20T07:44:37.679Z,13.86
2017-04-20T07:45:38.295Z,13.77
2017-04-20T07:46:38.916Z,13.70
2017-04-20T07:47:39.545Z,13.78
2017-04-20T07:48:40.163Z,13.77
2017-04-20T07:49:40.776Z,13.74
2017-04-20T07:50:41.395Z,13.71
2017-04-20T07:51:42.011Z,13.93
2017-04-20T07:52:42.725Z,14.15
2017-04-20T07:53:43.347Z,14.25
2017-04-20T07:54:43.966Z,14.50
2017-04-20T07:55:44.579Z,14.81
2017-04-20T07:56:45.195Z,15.14
2017-04-20T07:57:45.810Z,15.15
2017-04-20T07:58:46.427Z,15.14
2017-04-20T07:59:47.058Z,15.21
2017-04-20T08:00:47.674Z,15.22
2017-04-20T08:01:48.486Z,15.31
2017-04-20T08:02:49.117Z,15.40
2017-04-20T08:03:49.732Z,15.73
2017-04-20T08:04:50.347Z,16.01
2017-04-20T08:05:50.965Z,16.23
2017-04-20T08:06:51.581Z,16.32
2017-04-20T08:07:52.197Z,16.43
2017-04-20T08:08:52.816Z,16.50
2017-04-20T08:09:53.438Z,16.56
2017-04-20T08:10:54.050Z,16.56
2017-04-20T08:11:54.667Z,16.36
2017-04-20T08:12:55.285Z,16.16
2017-04-20T08:13:55.902Z,15.97
2017-04-20T08:14:56.520Z,15.72
2017-04-20T08:15:57.139Z,15.67
2017-04-20T08:16:57.757Z,15.75
2017-04-20T08:17:58.395Z,15.64
2017-04-20T08:18:59.010Z,15.39
2017-04-20T08:19:59.629Z,15.03
2017-04-20T08:21:00.244Z,14.59
2017-04-20T08:22:00.858Z,14.28
2017-04-20T08:23:01.474Z,14.29
2017-04-20T08:24:02.356Z,14.36
2017-04-20T08:25:02.977Z,14.77
2017-04-20T08:26:03.591Z,14.96
2017-04-20T08:27:04.211Z,15.21
2017-04-20T08:28:04.824Z,15.83
2017-04-20T08:29:05.440Z,16.50
2017-04-20T08:30:06.057Z,17.31
2017-04-20T08:31:06.679Z,18.10
2017-04-20T08:32:07.293Z,18.49
2017-04-20T08:33:07.932Z,18.71
2017-04-20T08:34:08.795Z,19.09
2017-04-20T08:35:09.434Z,19.26
2017-04-20T08:36:10.048Z,18.99
2017-04-20T08:37:10.670Z,18.49
2017-04-20T08:38:11.304Z,18.08
2017-04-20T08:39:12.169Z,17.80
2017-04-20T08:40:12.788Z,17.38
2017-04-20T08:41:13.419Z,16.89
2017-04-20T08:42:14.034Z,16.41
2017-04-20T08:43:14.649Z,15.95
2017-04-20T08:44:15.264Z,15.47
2017-04-20T08:45:15.879Z,15.04
2017-04-20T08:46:16.493Z,14.36
2017-04-20T08:47:17.121Z,13.85
2017-04-20T08:48:17.751Z,13.23
2017-04-20T08:49:18.364Z,12.93
2017-04-20T08:50:18.975Z,12.80
2017-04-20T08:51:19.589Z,13.05
2017-04-20T08:52:20.206Z,13.30
2017-04-20T08:53:20.818Z,13.60
2017-04-20T08:54:21.684Z,13.97
2017-04-20T08:55:22.315Z,14.22
2017-04-20T08:56:22.909Z,14.72
2017-04-20T08:57:23.538Z,15.28
2017-04-20T08:58:24.152Z,15.83
2017-04-20T08:59:24.789Z,16.20
2017-04-20T09:00:25.399Z,16.31
2017-04-20T09:01:26.014Z,16.39
2017-04-20T09:02:26.645Z,16.58
2017-04-20T09:03:27.277Z,17.02
2017-04-20T09:04:28.149Z,17.57
2017-04-20T09:05:28.769Z,18.11
2017-04-20T09:06:29.383Z,18.26
2017-04-20T09:07:30.006Z,18.52
2017-04-20T09:08:30.625Z,18.89
2017-04-20T09:09:31.240Z,19.18
2017-04-20T09:10:31.856Z,19.39
2017-04-20T09:11:32.476Z,19.71
2017-04-20T09:12:33.094Z,20.02
2017-04-20T09:13:33.729Z,19.84
2017-04-20T09:14:34.611Z,19.07
2017-04-20T09:15:35.241Z,18.41
2017-04-20T09:16:35.851Z,17.98
2017-04-20T09:17:36.465Z,17.31
2017-04-20T09:18:37.082Z,16.99
2017-04-20T09:19:37.714Z,16.87
2017-04-20T09:20:38.332Z,16.89
2017-04-20T09:21:38.950Z,17.16
2017-04-20T09:22:39.587Z,17.11
2017-04-20T09:23:40.219Z,16.86
2017-04-20T09:24:41.104Z,16.76
2017-04-20T09:25:41.743Z,16.75
2017-04-20T09:26:42.362Z,16.99
2017-04-20T09:27:42.981Z,17.14
2017-04-20T09:28:43.614Z,16.83
2017-04-20T09:29:44.485Z,16.13
2017-04-20T09:30:45.104Z,15.52
2017-04-20T09:31:45.715Z,14.79
2017-04-20T09:32:46.330Z,14.29
2017-04-20T09:33:46.960Z,14.25
2017-04-20T09:34:47.575Z,14.07
2017-04-20T09:35:48.195Z,13.92
2017-04-20T09:36:48.813Z,13.67
2017-04-20T09:37:49.424Z,13.23
2017-04-20T09:38:50.042Z,12.60
2017-04-20T09:39:50.650Z,11.95
2017-04-20T09:40:51.262Z,11.45
2017-04-20T09:41:51.872Z,11.08
2017-04-20T09:42:52.592Z,10.78
2017-04-20T09:43:53.199Z,10.46
2017-04-20T09:44:54.063Z,10.42
2017-04-20T09:45:54.678Z,10.44
2017-04-20T09:46:55.300Z,10.41
2017-04-20T09:47:55.909Z,10.53
2017-04-20T09:48:56.518Z,10.37
2017-04-20T09:49:57.131Z,10.17
2017-04-20T09:50:57.734Z,9.99
2017-04-20T09:51:58.338Z,9.80
2017-04-20T09:52:58.943Z,9.76
2017-04-20T09:53:59.565Z,9.74
2017-04-20T09:55:00.437Z,9.64
2017-04-20T09:56:01.047Z,9.51
2017-04-20T09:57:01.656Z,9.48
2017-04-20T09:58:02.515Z,9.39
2017-04-20T09:59:03.115Z,9.25
2017-04-20T10:00:03.721Z,9.13
2017-04-20T10:01:04.327Z,9.11
2017-04-20T10:02:04.931Z,9.44
2017-04-20T10:03:05.791Z,10.20
2017-04-20T10:04:06.401Z,11.02
2017-04-20T10:05:07.330Z,11.81
2017-04-20T10:06:08.185Z,12.29
2017-04-20T10:07:08.791Z,12.42
2017-04-20T10:08:09.657Z,12.60
2017-04-20T10:09:10.262Z,12.46
2017-04-20T10:10:10.875Z,12.20
2017-04-20T10:11:11.554Z,11.97
2017-04-20T10:12:12.159Z,11.48
2017-04-20T10:13:12.771Z,11.36
2017-04-20T10:14:13.400Z,11.19
2017-04-20T10:15:14.003Z,11.02
2017-04-20T10:16:14.624Z,10.96
2017-04-20T10:17:15.230Z,10.90
2017-04-20T10:18:15.835Z,10.78
2017-04-20T10:19:16.441Z,10.67
2017-04-20T10:20:17.053Z,10.41
2017-04-20T10:21:17.656Z,10.16
2017-04-20T10:22:18.261Z,10.02
2017-04-20T10:23:18.871Z,9.99
2017-04-20T10:24:19.493Z,10.02
2017-04-20T10:25:20.098Z,9.94
2017-04-20T10:26:20.722Z,9.97
2017-04-20T10:27:21.322Z,9.98
2017-04-20T10:28:21.933Z,9.94
2017-04-20T10:29:22.536Z,9.92
2017-04-20T10:30:23.145Z,9.94
2017-04-20T10:31:23.750Z,10.02
2017-04-20T10:32:24.353Z,10.17
2017-04-20T10:33:24.958Z,10.25
2017-04-20T10:34:25.564Z,10.40
2017-04-20T10:35:26.167Z,10.74
2017-04-20T10:36:26.774Z,10.74
2017-04-20T10:37:27.380Z,10.90
2017-04-20T10:38:27.984Z,11.00
2017-04-20T10:39:28.588Z,10.99
2017-04-20T10:40:29.192Z,11.19
2017-04-20T10:41:29.798Z,11.29
2017-04-20T10:42:30.410Z,11.27
2017-04-20T10:43:31.012Z,11.10
2017-04-20T10:44:31.616Z,10.84
2017-04-20T10:45:32.219Z,10.49
2017-04-20T10:46:32.822Z,10.31
2017-04-20T10:47:33.435Z,10.22
2017-04-20T10:48:34.042Z,9.99
2017-04-20T10:49:34.643Z,9.92
2017-04-20T10:50:35.263Z,9.79
2017-04-20T10:51:35.867Z,9.74
2017-04-20T10:52:36.475Z,9.55
2017-04-20T10:53:37.080Z,9.40
2017-04-20T10:54:37.679Z,9.31
2017-04-20T10:55:38.287Z,9.36
2017-04-20T10:56:38.887Z,9.47
2017-04-20T10:57:39.490Z,9.68
2017-04-20T10:58:40.092Z,9.80
2017-04-20T10:59:40.700Z,9.94
2017-04-20T11:00:41.301Z,10.10
2017-04-20T11:01:41.907Z,10.15
2017-04-20T11:02:42.526Z,10.19
2017-04-20T11:03:43.151Z,10.31
2017-04-20T11:04:43.752Z,10.53
2017-04-20T11:05:44.357Z,10.51
2017-04-20T11:06:44.963Z,10.41
2017-04-20T11:07:45.566Z,10.44
2017-04-20T11:08:46.171Z,10.25
2017-04-20T11:09:46.795Z,10.22
2017-04-20T11:10:47.395Z,9.95
2017-04-20T11:11:48.018Z,9.84
2017-04-20T11:12:48.617Z,9.73
2017-04-20T11:13:49.229Z,9.66
2017-04-20T11:14:49.826Z,9.58
2017-04-20T11:15:50.429Z,9.62
2017-04-20T11:16:51.035Z,9.76
2017-04-20T11:17:51.641Z,9.66
2017-04-20T11:18:52.247Z,9.61
2017-04-20T11:19:52.849Z,9.56
2017-04-20T11:20:53.451Z,9.73
2017-04-20T11:21:54.055Z,9.79
2017-04-20T11:22:54.708Z,9.95
2017-04-20T11:23:55.310Z,10.01
2017-04-20T11:24:55.919Z,10.16
2017-04-20T11:25:56.522Z,10.13
2017-04-20T11:26:57.142Z,10.13
2017-04-20T11:27:57.745Z,10.05
2017-04-20T11:28:58.347Z,10.07
2017-04-20T11:29:58.952Z,10.04
2017-04-20T11:30:59.557Z,10.01
2017-04-20T11:32:00.174Z,9.98
2017-04-20T11:33:00.778Z,9.98
2017-04-20T11:34:01.380Z,9.94
2017-04-20T11:35:01.984Z,10.13
2017-04-20T11:36:02.642Z,10.05
2017-04-20T11:37:03.247Z,9.98
2017-04-20T11:38:03.846Z,10.02
2017-04-20T11:39:04.452Z,10.05
2017-04-20T11:40:05.075Z,10.10
2017-04-20T11:41:05.685Z,10.19
2017-04-20T11:42:06.492Z,10.28
2017-04-20T11:43:07.094Z,10.23
2017-04-20T11:44:07.698Z,10.17
2017-04-20T11:45:08.302Z,10.28
2017-04-20T11:46:08.907Z,10.33
2017-04-20T11:47:09.513Z,10.25
2017-04-20T11:48:10.120Z,10.25
2017-04-20T11:49:10.720Z,10.10
2017-04-20T11:50:11.323Z,9.98
2017-04-20T11:51:11.931Z,9.95
2017-04-20T11:52:12.532Z,9.76
2017-04-20T11:53:13.140Z,9.74
2017-04-20T11:54:13.738Z,9.72
2017-04-20T11:55:14.341Z,9.69
2017-04-20T11:56:14.965Z,9.80
2017-04-20T11:57:15.569Z,9.74
2017-04-20T11:58:16.169Z,9.84
2017-04-20T11:59:16.777Z,9.94
2017-04-20T12:00:17.377Z,9.98
2017-04-20T12:01:17.981Z,9.98
2017-04-20T12:02:18.581Z,9.99
2017-04-20T12:03:19.185Z,9.95
2017-04-20T12:04:20.087Z,9.87
2017-04-20T12:05:20.691Z,9.82
2017-04-20T12:06:21.294Z,9.74
2017-04-20T12:07:21.902Z,9.74
2017-04-20T12:08:22.526Z,9.74
2017-04-20T12:09:23.130Z,9.64
2017-04-20T12:10:23.732Z,9.47
2017-04-20T12:11:24.338Z,9.36
2017-04-20T12:12:24.944Z,9.34
2017-04-20T12:13:25.543Z,9.29
2017-04-20T12:14:26.151Z,9.25
2017-04-20T12:15:26.753Z,9.28
2017-04-20T12:16:27.371Z,9.34
2017-04-20T12:17:28.274Z,9.51
2017-04-20T12:18:28.876Z,9.74
2017-04-20T12:19:29.476Z,9.79
2017-04-20T12:20:30.083Z,9.98
2017-04-20T12:21:30.690Z,10.15
2017-04-20T12:22:31.292Z,10.33
2017-04-20T12:23:31.910Z,10.46
2017-04-20T12:24:32.525Z,10.57
2017-04-20T12:25:33.143Z,10.63
2017-04-20T12:26:33.995Z,10.60
2017-04-20T12:27:34.597Z,10.38
2017-04-20T12:28:35.206Z,10.26
2017-04-20T12:29:35.806Z,10.05
2017-04-20T12:30:36.413Z,9.95
2017-04-20T12:31:37.014Z,9.79
2017-04-20T12:32:37.622Z,9.79
2017-04-20T12:33:38.228Z,9.91
2017-04-20T12:34:38.838Z,9.94
2017-04-20T12:35:39.440Z,10.04
2017-04-20T12:36:40.046Z,10.15
2017-04-20T12:37:40.655Z,10.04
2017-04-20T12:38:41.251Z,10.07
2017-04-20T12:39:41.854Z,10.02
2017-04-20T12:40:42.464Z,9.99
2017-04-20T12:41:43.076Z,10.07
2017-04-20T12:42:43.743Z,10.13
2017-04-20T12:43:44.347Z,10.05
2017-04-20T12:44:44.949Z,10.13
2017-04-20T12:45:45.568Z,10.13
2017-04-20T12:46:46.170Z,9.99
2017-04-20T12:47:46.774Z,10.01
2017-04-20T12:48:47.381Z,9.82
2017-04-20T12:49:48.250Z,9.73
2017-04-20T12:50:48.857Z,9.77
2017-04-20T12:51:49.455Z,9.79
2017-04-20T12:52:50.057Z,9.76
2017-04-20T12:53:50.657Z,9.73
2017-04-20T12:54:51.260Z,9.74
2017-04-20T12:55:51.863Z,9.80
2017-04-20T12:56:52.488Z,9.95
2017-04-20T12:57:53.108Z,10.10
2017-04-20T12:58:53.718Z,10.19
2017-04-20T12:59:54.323Z,10.30
2017-04-20T13:00:54.927Z,10.31
2017-04-20T13:01:55.531Z,10.34
2017-04-20T13:02:56.138Z,10.34
2017-04-20T13:03:56.864Z,10.28
2017-04-20T13:04:57.465Z,10.25
2017-04-20T13:05:58.082Z,10.23
2017-04-20T13:06:58.689Z,10.30
2017-04-20T13:07:59.294Z,10.44
2017-04-20T13:08:59.918Z,10.54
2017-04-20T13:10:00.518Z,10.60
2017-04-20T13:11:01.136Z,10.63
2017-04-20T13:12:01.739Z,10.51
2017-04-20T13:13:02.362Z,10.46
2017-04-20T13:14:02.973Z,10.25
2017-04-20T13:15:03.580Z,10.07
2017-04-20T13:16:04.189Z,9.89